Time;durP1;ratioP1;P1;durP2;ratioP2;P2;SDS_P1;SDS_P2;PMS_P1;PMS_P2;Temp;Humidity;BMP_temperature;BMP_pressure;BME280_temperature;BME280_humidity;BME280_pressure;Samples;Min_cycle;Max_cycle;Signal;HPM_P1;HPM_P2
2022/12/29 00:02:11;;;;;;;58.47;23.30;;;;;;;12.18;100.00;94946.53;4985594;28;20034;-83
2022/12/29 00:04:36;;;;;;;47.85;21.55;;;;;;;12.66;100.00;94954.13;4985455;28;20355;-82
2022/12/29 00:07:04;;;;;;;977.75;68.47;;;;;;;12.21;100.00;94946.00;5015735;28;20032;-83
2022/12/29 00:09:30;;;;;;;583.63;45.40;;;;;;;11.79;100.00;94943.31;5041047;28;20078;-83
2022/12/29 00:11:55;;;;;;;78.47;25.52;;;;;;;12.46;100.00;94947.06;5040840;28;20033;-83
2022/12/29 00:17:04;;;;;;;524.88;43.13;;;;;;;12.02;100.00;94938.66;5058525;28;20116;-83
2022/12/29 00:36:05;;;;;;;55.22;19.20;;;;;;;12.10;100.00;94911.09;5043049;28;20472;-83
2022/12/29 00:44:17;;;;;;;40.60;18.38;;;;;;;10.53;100.00;94908.22;4965861;28;20476;-83
2022/12/29 00:46:43;;;;;;;39.83;17.15;;;;;;;11.00;100.00;94899.56;5007305;28;20037;-83
2022/12/29 00:52:00;;;;;;;32.38;13.85;;;;;;;10.40;100.00;94925.97;5042830;28;20036;-83
2022/12/29 00:54:25;;;;;;;25.75;11.48;;;;;;;11.10;100.00;94921.63;5023660;28;20024;-83
2022/12/29 00:56:52;;;;;;;33.15;12.00;;;;;;;11.46;100.00;94912.03;5039959;28;20127;-83
2022/12/29 00:59:18;;;;;;;28.65;13.45;;;;;;;11.55;100.00;94909.69;5023693;28;20036;-83
2022/12/29 01:01:44;;;;;;;25.27;11.82;;;;;;;11.58;100.00;94903.13;5040155;28;20025;-83
2022/12/29 01:04:16;;;;;;;27.15;12.18;;;;;;;11.46;100.00;94896.28;5039750;28;20047;-83
2022/12/29 01:06:41;;;;;;;25.85;10.65;;;;;;;11.92;100.00;94905.28;5057500;28;20107;-83
2022/12/29 01:11:51;;;;;;;20.48;9.35;;;;;;;12.19;100.00;94903.47;5042352;28;20031;-83
2022/12/29 01:14:18;;;;;;;21.75;9.57;;;;;;;12.58;100.00;94905.53;5039616;28;20029;-83
2022/12/29 01:16:44;;;;;;;20.25;10.60;;;;;;;12.12;100.00;94907.16;5039525;28;20068;-83
2022/12/29 01:19:09;;;;;;;23.27;12.57;;;;;;;12.67;100.00;94909.16;5039577;28;20504;-83
2022/12/29 01:21:35;;;;;;;29.88;14.82;;;;;;;12.85;100.00;94904.41;5023215;28;20029;-83
2022/12/29 01:24:00;;;;;;;54.08;17.65;;;;;;;12.76;98.35;94912.03;5022829;28;20020;-83
2022/12/29 01:26:26;;;;;;;141.38;20.75;;;;;;;11.75;100.00;94908.16;5039302;28;20033;-83
2022/12/29 01:28:51;;;;;;;46.35;19.08;;;;;;;11.88;100.00;94918.13;5023130;28;20201;-83
2022/12/29 01:31:17;;;;;;;548.38;39.95;;;;;;;11.58;100.00;94921.50;5022551;28;20032;-83
2022/12/29 01:33:43;;;;;;;261.60;29.35;;;;;;;11.40;100.00;94912.25;5039520;28;20035;-83
2022/12/29 01:36:12;;;;;;;121.57;26.30;;;;;;;12.19;100.00;94916.59;5022843;28;20036;-83
2022/12/29 01:38:38;;;;;;;44.50;20.83;;;;;;;12.47;100.00;94910.00;5022992;28;20040;-83
2022/12/29 01:41:04;;;;;;;44.10;19.35;;;;;;;12.78;100.00;94915.22;5057318;28;20028;-83
2022/12/29 01:44:02;;;;;;;35.20;17.13;;;;;;;12.39;100.00;94908.69;5022895;28;20113;-83
2022/12/29 01:46:38;;;;;;;34.95;15.93;;;;;;;12.42;100.00;94902.13;5039895;28;20037;-83
2022/12/29 01:49:12;;;;;;;29.92;14.82;;;;;;;12.97;100.00;94909.34;5039117;28;20433;-83
2022/12/29 01:51:43;;;;;;;26.13;11.73;;;;;;;13.03;100.00;94905.63;5056840;28;20028;-83
2022/12/29 01:54:13;;;;;;;22.25;10.38;;;;;;;13.01;99.45;94913.81;5056665;28;20039;-83
2022/12/29 01:56:38;;;;;;;19.00;10.60;;;;;;;12.62;100.00;94906.56;5038898;28;20097;-83
2022/12/29 01:59:08;;;;;;;17.58;8.93;;;;;;;12.81;100.00;94909.41;5022746;28;20071;-83
2022/12/29 02:01:33;;;;;;;15.52;8.77;;;;;;;13.13;100.00;94910.09;5022462;28;20035;-83
2022/12/29 02:03:59;;;;;;;14.63;7.90;;;;;;;13.07;100.00;94916.41;5039053;28;20024;-83
2022/12/29 02:06:31;;;;;;;19.90;9.50;;;;;;;13.04;99.75;94915.09;5038777;28;20036;-83
2022/12/29 02:08:58;;;;;;;18.73;7.93;;;;;;;13.50;99.72;94902.84;5034634;28;20033;-83
2022/12/29 02:11:26;;;;;;;20.42;7.80;;;;;;;13.46;99.11;94913.13;5017537;28;20029;-82
2022/12/29 02:13:51;;;;;;;20.25;9.05;;;;;;;13.15;100.00;94916.63;4983613;28;20030;-83
2022/12/29 02:16:48;;;;;;;24.13;11.85;;;;;;;12.72;100.00;94913.63;5016152;28;20453;-82
2022/12/29 02:19:41;;;;;;;19.27;10.25;;;;;;;13.19;100.00;94903.75;5029490;28;20030;-82
2022/12/29 02:22:30;;;;;;;24.20;11.73;;;;;;;13.26;100.00;94903.44;5036354;28;20037;-82
2022/12/29 02:25:07;;;;;;;23.08;11.77;;;;;;;12.60;100.00;94898.16;5016682;28;20116;-83
2022/12/29 02:27:51;;;;;;;15.60;8.32;;;;;;;13.11;100.00;94905.09;5015261;28;20057;-83
2022/12/29 02:30:43;;;;;;;20.25;8.10;;;;;;;13.46;98.68;94905.22;4999348;28;20038;-83
2022/12/29 02:33:40;;;;;;;19.98;7.40;;;;;;;13.31;98.18;94905.28;4989608;28;20033;-82
2022/12/29 02:36:19;;;;;;;15.43;8.00;;;;;;;13.68;98.88;94906.66;5024593;28;20033;-83
2022/12/29 02:38:50;;;;;;;26.85;12.85;;;;;;;13.05;100.00;94905.38;4983082;28;20136;-82
2022/12/29 02:41:29;;;;;;;101.00;17.55;;;;;;;12.89;100.00;94899.38;4999170;28;20037;-83
2022/12/29 02:44:02;;;;;;;37.42;16.95;;;;;;;13.33;95.96;94895.25;4983941;28;20056;-82
2022/12/29 02:46:36;;;;;;;41.70;18.05;;;;;;;13.52;94.51;94896.22;4982968;28;20030;-83
2022/12/29 02:49:32;;;;;;;164.70;18.95;;;;;;;13.17;99.29;94894.53;4983015;28;20037;-83
2022/12/29 02:52:05;;;;;;;32.35;15.63;;;;;;;13.25;96.13;94896.63;4999194;28;20022;-83
2022/12/29 02:54:43;;;;;;;28.38;14.63;;;;;;;11.95;100.00;94881.13;4998975;28;20554;-82
2022/12/29 02:57:20;;;;;;;37.15;17.77;;;;;;;11.74;100.00;94877.69;5000654;28;20033;-82
2022/12/29 02:59:48;;;;;;;28.67;13.02;;;;;;;12.00;100.00;94867.97;4999113;28;20037;-83
2022/12/29 03:02:31;;;;;;;44.05;17.98;;;;;;;12.79;100.00;94866.81;4982855;28;20030;-83
2022/12/29 03:05:02;;;;;;;33.57;15.27;;;;;;;13.23;99.83;94867.94;4999189;28;20143;-83
2022/12/29 03:07:49;;;;;;;24.73;12.25;;;;;;;13.40;98.56;94864.16;4999002;28;20032;-83
2022/12/29 03:10:23;;;;;;;23.30;12.52;;;;;;;12.55;100.00;94864.78;4998892;28;20053;-83
2022/12/29 03:16:48;;;;;;;27.60;13.35;;;;;;;13.15;99.95;94864.03;4991214;28;20538;-83
2022/12/29 03:19:23;;;;;;;151.27;19.40;;;;;;;12.42;100.00;94862.72;4936828;29;20059;-82
2022/12/29 03:24:42;;;;;;;31.23;14.65;;;;;;;12.59;100.00;94852.66;4977429;28;20037;-82
2022/12/29 03:27:10;;;;;;;28.83;12.30;;;;;;;12.32;100.00;94857.47;4982617;28;20037;-82
2022/12/29 03:29:39;;;;;;;25.90;10.88;;;;;;;11.94;100.00;94839.34;5001455;28;20030;-82
2022/12/29 03:32:07;;;;;;;20.88;9.30;;;;;;;12.26;100.00;94846.97;4986148;28;20423;-82
2022/12/29 03:34:33;;;;;;;19.38;9.43;;;;;;;12.89;100.00;94842.31;5002066;28;20339;-83
2022/12/29 03:37:12;;;;;;;15.18;8.35;;;;;;;13.17;100.00;94834.03;4985950;28;20432;-83
2022/12/29 03:39:38;;;;;;;18.27;8.27;;;;;;;13.21;100.00;94835.06;5002391;28;20112;-83
2022/12/29 03:42:08;;;;;;;18.05;8.40;;;;;;;13.07;100.00;94840.94;5002053;28;20113;-83
2022/12/29 03:44:36;;;;;;;18.67;8.70;;;;;;;13.25;100.00;94841.34;4985554;28;20018;-83
2022/12/29 03:47:02;;;;;;;18.30;8.32;;;;;;;12.35;100.00;94846.44;5001817;28;20037;-83
2022/12/29 03:49:27;;;;;;;16.77;8.50;;;;;;;12.95;100.00;94851.75;4985561;28;20355;-83
2022/12/29 03:51:53;;;;;;;15.38;7.80;;;;;;;13.41;100.00;94848.09;5001865;28;20028;-83
2022/12/29 03:54:19;;;;;;;14.65;7.13;;;;;;;13.59;100.00;94848.53;5001788;28;20084;-83
2022/12/29 03:56:44;;;;;;;23.30;7.75;;;;;;;13.55;97.79;94839.63;5019162;28;20030;-83
2022/12/29 03:59:10;;;;;;;17.58;7.38;;;;;;;13.22;100.00;94858.47;5001586;28;20037;-83
2022/12/29 04:01:35;;;;;;;24.20;7.45;;;;;;;13.23;100.00;94844.25;5001910;28;20416;-83
2022/12/29 04:04:01;;;;;;;20.35;8.40;;;;;;;12.91;100.00;94848.09;5001625;28;20176;-83
2022/12/29 04:06:26;;;;;;;16.23;8.27;;;;;;;13.18;100.00;94849.56;5001431;28;20033;-83
2022/12/29 04:08:51;;;;;;;19.33;9.55;;;;;;;13.34;99.45;94844.19;5001487;28;20065;-83
2022/12/29 04:11:17;;;;;;;18.10;8.20;;;;;;;13.55;100.00;94848.28;5001580;28;20033;-83
2022/12/29 04:13:42;;;;;;;20.13;8.80;;;;;;;13.84;94.99;94849.41;4985289;28;20435;-83
2022/12/29 04:16:08;;;;;;;19.50;7.47;;;;;;;13.98;96.60;94852.19;4985168;28;20497;-83
2022/12/29 04:18:33;;;;;;;13.88;6.53;;;;;;;13.98;94.88;94847.72;4985226;28;20025;-83
2022/12/29 04:21:02;;;;;;;14.35;6.72;;;;;;;14.04;94.42;94856.38;5001314;28;20022;-82
2022/12/29 04:23:29;;;;;;;10.43;6.18;;;;;;;14.40;93.51;94858.66;4985579;28;20027;-82
2022/12/29 04:25:54;;;;;;;13.32;6.05;;;;;;;14.06;95.36;94856.06;5018552;28;20423;-82
2022/12/29 04:28:20;;;;;;;15.95;6.20;;;;;;;14.31;94.90;94849.81;4985056;28;20028;-83
2022/12/29 04:30:46;;;;;;;10.93;5.07;;;;;;;14.03;94.10;94846.88;5001070;28;20037;-83
2022/12/29 04:33:12;;;;;;;12.93;5.72;;;;;;;14.16;94.98;94847.31;4984991;28;20076;-83
2022/12/29 04:35:37;;;;;;;12.73;4.47;;;;;;;14.43;92.77;94854.69;5000958;28;20026;-83
2022/12/29 04:38:03;;;;;;;8.55;4.93;;;;;;;14.55;91.74;94852.44;4984864;28;20053;-82
2022/12/29 04:40:28;;;;;;;8.77;4.60;;;;;;;14.52;90.36;94846.94;5000491;28;20029;-83
2022/12/29 04:42:54;;;;;;;8.77;4.30;;;;;;;14.55;93.21;94851.66;4984815;28;20022;-83
2022/12/29 04:45:19;;;;;;;10.43;3.90;;;;;;;14.53;93.05;94848.50;5000884;28;20030;-83
2022/12/29 04:47:45;;;;;;;9.05;4.13;;;;;;;13.76;99.70;94842.88;5000468;28;20194;-83
2022/12/29 04:50:10;;;;;;;9.63;5.43;;;;;;;14.22;96.72;94851.47;5000688;28;20026;-83
2022/12/29 04:52:36;;;;;;;10.50;5.25;;;;;;;14.20;93.01;94851.75;5000737;28;20069;-83
2022/12/29 04:55:04;;;;;;;10.73;4.50;;;;;;;14.48;93.85;94856.50;4984223;28;20025;-83
2022/12/29 04:57:29;;;;;;;14.10;4.30;;;;;;;14.41;94.67;94846.28;4984380;28;20040;-83
2022/12/29 04:59:55;;;;;;;9.40;4.25;;;;;;;14.48;93.14;94851.97;4984545;28;20121;-83
2022/12/29 05:02:20;;;;;;;8.70;4.75;;;;;;;14.46;93.75;94859.38;4984532;28;20486;-83
2022/12/29 05:04:46;;;;;;;10.55;5.90;;;;;;;13.84;97.69;94854.69;5000456;28;20025;-83
2022/12/29 05:07:11;;;;;;;11.52;4.80;;;;;;;13.44;100.00;94859.97;4984302;28;20057;-83
2022/12/29 05:09:37;;;;;;;11.07;5.05;;;;;;;13.13;100.00;94858.25;4984359;28;20030;-83
2022/12/29 05:12:03;;;;;;;9.25;4.88;;;;;;;13.73;100.00;94868.97;5000298;28;20037;-83
2022/12/29 05:14:28;;;;;;;12.60;5.28;;;;;;;13.69;100.00;94852.94;5000169;28;20034;-83
2022/12/29 05:16:53;;;;;;;11.27;5.28;;;;;;;13.86;99.79;94863.09;5000149;28;20346;-82
2022/12/29 05:19:19;;;;;;;10.93;5.18;;;;;;;13.87;100.00;94862.03;4984208;28;20026;-83
2022/12/29 05:21:44;;;;;;;17.95;8.27;;;;;;;13.28;100.00;94865.28;5000196;28;20033;-83
2022/12/29 05:24:10;;;;;;;25.98;13.07;;;;;;;13.09;100.00;94864.31;5000090;28;20442;-83
2022/12/29 05:26:35;;;;;;;25.85;13.45;;;;;;;12.69;100.00;94859.72;4999108;28;20030;-83
2022/12/29 05:29:01;;;;;;;26.98;12.98;;;;;;;12.70;100.00;94865.78;4999987;28;20463;-83
2022/12/29 05:31:27;;;;;;;22.98;11.98;;;;;;;12.78;100.00;94856.56;4999952;28;20379;-83
2022/12/29 05:33:53;;;;;;;27.63;12.95;;;;;;;12.62;100.00;94853.97;4999949;28;20059;-82
2022/12/29 05:36:18;;;;;;;31.63;13.93;;;;;;;12.58;100.00;94858.97;4983699;28;20120;-83
2022/12/29 05:38:43;;;;;;;22.00;10.90;;;;;;;12.61;100.00;94849.78;4999917;28;20026;-83
2022/12/29 05:41:09;;;;;;;19.83;10.32;;;;;;;12.16;100.00;94852.22;4983852;28;20026;-83
2022/12/29 05:43:35;;;;;;;22.48;10.18;;;;;;;12.44;100.00;94864.03;4983742;28;20033;-83
2022/12/29 05:46:01;;;;;;;23.98;12.18;;;;;;;11.52;100.00;94849.06;4983641;28;20088;-83
2022/12/29 05:48:27;;;;;;;21.05;10.10;;;;;;;12.34;100.00;94855.34;4983743;28;20088;-83
2022/12/29 05:50:52;;;;;;;23.23;9.50;;;;;;;12.46;100.00;94855.09;5021133;28;20029;-83
2022/12/29 05:53:18;;;;;;;26.80;11.00;;;;;;;12.20;100.00;94842.78;5005070;28;20069;-82
2022/12/29 05:55:46;;;;;;;17.17;9.75;;;;;;;12.33;100.00;94849.31;5016986;28;20434;-82
2022/12/29 05:58:11;;;;;;;23.17;9.50;;;;;;;12.26;100.00;94841.72;4999549;28;20048;-83
2022/12/29 06:00:37;;;;;;;23.45;9.98;;;;;;;12.69;100.00;94853.69;4983612;28;20026;-83
2022/12/29 06:03:03;;;;;;;22.10;8.60;;;;;;;12.72;100.00;94853.16;4983554;28;20087;-83
2022/12/29 06:05:29;;;;;;;14.32;7.53;;;;;;;13.08;100.00;94858.28;4983197;28;20037;-83
2022/12/29 06:07:54;;;;;;;14.10;7.80;;;;;;;13.28;100.00;94854.75;4983232;28;20338;-83
2022/12/29 06:10:20;;;;;;;17.00;6.55;;;;;;;13.20;100.00;94855.31;5016944;28;20029;-83
2022/12/29 06:12:46;;;;;;;13.75;6.90;;;;;;;13.50;100.00;94852.81;4999363;28;20038;-83
2022/12/29 06:15:11;;;;;;;16.20;7.00;;;;;;;13.55;100.00;94856.19;5009629;28;20025;-83
2022/12/29 06:17:36;;;;;;;18.00;7.10;;;;;;;13.24;100.00;94863.47;5018960;28;20031;-83
2022/12/29 06:20:02;;;;;;;16.75;6.35;;;;;;;13.59;100.00;94858.28;5019093;28;20342;-83
2022/12/29 06:22:28;;;;;;;16.63;6.22;;;;;;;13.06;100.00;94864.88;5036796;28;20030;-83
2022/12/29 06:24:53;;;;;;;14.77;6.05;;;;;;;13.47;100.00;94861.25;5018926;28;20431;-83
2022/12/29 06:27:19;;;;;;;11.68;5.43;;;;;;;13.27;100.00;94860.28;5018787;28;20061;-83
2022/12/29 06:29:44;;;;;;;9.27;5.15;;;;;;;13.03;100.00;94868.03;5018796;28;20435;-83
2022/12/29 06:32:10;;;;;;;9.27;4.22;;;;;;;13.76;100.00;94863.16;5018772;28;20036;-83
2022/12/29 06:34:35;;;;;;;9.43;5.00;;;;;;;13.52;100.00;94863.88;5036276;28;20030;-83
2022/12/29 06:37:01;;;;;;;10.93;4.97;;;;;;;13.86;100.00;94860.44;5027431;28;20037;-83
2022/12/29 06:39:27;;;;;;;8.95;4.63;;;;;;;13.91;99.05;94855.13;4999219;28;20025;-83
2022/12/29 06:41:53;;;;;;;13.32;5.55;;;;;;;13.94;99.50;94851.97;4999258;28;20037;-83
2022/12/29 06:44:19;;;;;;;7.75;4.55;;;;;;;14.11;98.92;94864.72;4999227;28;20431;-83
2022/12/29 06:46:45;;;;;;;9.15;4.05;;;;;;;13.86;98.78;94860.44;4998934;28;20033;-83
2022/12/29 06:49:10;;;;;;;9.43;4.35;;;;;;;14.05;94.86;94855.31;4983006;28;20051;-83
2022/12/29 06:51:36;;;;;;;10.50;4.60;;;;;;;14.21;97.13;94858.59;5016500;28;20033;-83
2022/12/29 06:54:01;;;;;;;8.07;4.72;;;;;;;14.02;95.42;94857.69;4998887;28;20172;-83
2022/12/29 06:56:27;;;;;;;12.38;5.60;;;;;;;13.55;100.00;94868.56;5001259;28;20101;-83
2022/12/29 06:58:52;;;;;;;9.90;4.00;;;;;;;13.68;100.00;94867.97;5018582;28;20438;-83
2022/12/29 07:01:18;;;;;;;6.60;3.90;;;;;;;14.17;96.79;94867.31;5018575;28;20029;-83
2022/12/29 07:03:43;;;;;;;6.95;3.47;;;;;;;14.18;98.13;94864.41;5021768;28;20422;-83
2022/12/29 07:06:09;;;;;;;12.00;3.53;;;;;;;14.34;94.19;94866.88;5022479;28;20460;-83
2022/12/29 07:08:34;;;;;;;8.20;4.93;;;;;;;14.47;92.78;94871.50;5039899;28;20079;-83
2022/12/29 07:11:00;;;;;;;10.90;5.40;;;;;;;14.02;93.94;94869.03;5022257;28;20346;-83
2022/12/29 07:13:25;;;;;;;7.97;4.70;;;;;;;13.71;100.00;94867.41;5022113;28;20033;-83
2022/12/29 07:15:51;;;;;;;13.10;4.38;;;;;;;12.68;100.00;94873.16;5020572;28;20026;-83
2022/12/29 07:18:16;;;;;;;10.15;5.65;;;;;;;13.74;100.00;94876.63;4986405;28;20037;-82
2022/12/29 07:20:42;;;;;;;10.05;5.18;;;;;;;13.60;100.00;94868.53;5002449;28;20368;-83
2022/12/29 07:23:07;;;;;;;15.88;7.03;;;;;;;13.53;100.00;94873.34;5026577;28;20048;-83
2022/12/29 07:25:34;;;;;;;16.75;7.38;;;;;;;13.87;100.00;94877.81;5022214;28;20425;-83
2022/12/29 07:28:00;;;;;;;24.60;10.98;;;;;;;13.46;98.04;94886.00;5039397;28;20047;-86
2022/12/29 07:30:26;;;;;;;23.10;12.18;;;;;;;13.65;100.00;94888.78;5013184;28;20033;-87
2022/12/29 07:32:51;;;;;;;73.03;14.38;;;;;;;13.63;97.04;94888.28;5025764;28;20032;-86
2022/12/29 07:35:17;;;;;;;226.77;19.58;;;;;;;13.56;100.00;94888.56;5041889;28;20025;-87
2022/12/29 07:37:42;;;;;;;737.22;37.05;;;;;;;12.57;100.00;94894.22;5041760;28;20032;-86
2022/12/29 07:40:09;;;;;;;681.42;40.05;;;;;;;12.58;100.00;94895.00;5041451;28;20154;-86
2022/12/29 07:42:34;;;;;;;363.48;25.83;;;;;;;12.76;100.00;94885.75;5026046;28;20029;-88
2022/12/29 07:45:35;;;;;;;191.20;18.50;;;;;;;13.65;100.00;94886.16;5040954;28;20078;-88
2022/12/29 07:48:02;;;;;;;101.97;14.40;;;;;;;13.37;100.00;94891.03;5021410;28;20029;-85
2022/12/29 07:50:28;;;;;;;22.55;11.80;;;;;;;13.53;100.00;94895.16;5017953;28;20370;-86
2022/12/29 07:52:54;;;;;;;117.10;18.13;;;;;;;13.34;100.00;94900.25;4995074;28;20124;-86
2022/12/29 07:55:19;;;;;;;29.73;15.40;;;;;;;12.81;100.00;94898.88;4999978;28;20129;-86
2022/12/29 07:57:48;;;;;;;160.85;19.60;;;;;;;12.71;100.00;94898.91;4985870;28;20040;-85
2022/12/29 08:00:14;;;;;;;29.38;15.60;;;;;;;13.26;100.00;94900.81;5001720;28;20124;-86
2022/12/29 08:02:39;;;;;;;67.65;16.23;;;;;;;13.14;100.00;94906.41;5002035;28;20061;-85
2022/12/29 08:05:08;;;;;;;54.40;16.58;;;;;;;13.78;100.00;94897.94;5001644;28;20033;-85
2022/12/29 08:07:33;;;;;;;600.65;42.45;;;;;;;12.80;100.00;94912.28;4987146;28;20120;-86
2022/12/29 08:09:59;;;;;;;89.22;16.83;;;;;;;13.27;100.00;94911.09;4986486;28;20121;-86
2022/12/29 08:12:24;;;;;;;51.17;16.10;;;;;;;14.16;100.00;94903.41;5004775;28;20053;-86
2022/12/29 08:14:50;;;;;;;1537.88;113.13;;;;;;;12.42;100.00;94900.28;5019846;28;20041;-85
2022/12/29 08:17:15;;;;;;;589.90;37.17;;;;;;;12.83;100.00;94902.03;5004616;28;20342;-85
2022/12/29 08:19:42;;;;;;;297.98;25.50;;;;;;;12.94;100.00;94908.03;5004869;28;20443;-84
2022/12/29 08:22:08;;;;;;;862.10;41.33;;;;;;;12.43;100.00;94919.47;5021368;28;20057;-86
2022/12/29 08:24:33;;;;;;;494.33;34.00;;;;;;;12.43;100.00;94903.69;5012308;28;20116;-85
2022/12/29 08:26:59;;;;;;;193.27;21.50;;;;;;;13.47;100.00;94906.00;5024090;28;20142;-85
2022/12/29 08:29:24;;;;;;;165.10;20.33;;;;;;;13.15;100.00;94914.00;5023293;28;20039;-85
2022/12/29 08:31:50;;;;;;;50.08;15.52;;;;;;;13.45;100.00;94908.13;5019628;28;20021;-86
2022/12/29 08:34:15;;;;;;;37.90;14.93;;;;;;;13.95;99.36;94908.06;4992436;28;20089;-92
2022/12/29 08:36:41;;;;;;;27.02;13.40;;;;;;;14.29;99.01;94912.56;4985810;28;20088;-91
2022/12/29 08:39:16;;;;;;;32.10;15.90;;;;;;;13.61;100.00;94904.31;4985391;28;20048;-91
2022/12/29 08:41:44;;;;;;;22.20;11.40;;;;;;;13.59;100.00;94911.72;4985650;28;20068;-89
2022/12/29 08:44:22;;;;;;;28.50;14.60;;;;;;;14.28;100.00;94905.72;4985970;28;20404;-88
2022/12/29 08:46:47;;;;;;;472.30;31.85;;;;;;;13.82;100.00;94915.53;4984999;28;20029;-89
2022/12/29 08:49:13;;;;;;;811.75;49.72;;;;;;;13.06;100.00;94909.59;4985243;28;20051;-89
2022/12/29 08:51:39;;;;;;;1303.85;87.53;;;;;;;13.04;100.00;94915.09;4984619;28;20025;-88
2022/12/29 08:54:04;;;;;;;356.85;25.90;;;;;;;12.69;100.00;94920.19;4984903;28;20037;-85
2022/12/29 08:56:30;;;;;;;196.77;23.17;;;;;;;12.82;100.00;94929.38;4983890;28;20132;-85
2022/12/29 08:58:55;;;;;;;60.17;17.35;;;;;;;13.34;100.00;94925.78;4984688;28;20339;-85
2022/12/29 09:01:21;;;;;;;34.58;17.80;;;;;;;14.03;100.00;94920.66;4984475;28;20029;-85
2022/12/29 09:03:47;;;;;;;244.63;21.70;;;;;;;14.25;100.00;94917.59;4984436;28;20048;-86
2022/12/29 09:06:13;;;;;;;34.42;14.57;;;;;;;14.78;99.88;94921.34;4984250;28;20129;-85
2022/12/29 09:08:38;;;;;;;735.10;49.17;;;;;;;13.22;100.00;94916.34;4984348;28;20025;-86
2022/12/29 09:11:33;;;;;;;90.50;16.80;;;;;;;13.90;100.00;94918.66;4984340;28;20456;-85
2022/12/29 09:13:59;;;;;;;540.42;34.97;;;;;;;13.10;100.00;94921.13;4963159;28;20038;-85
2022/12/29 09:16:25;;;;;;;935.72;49.17;;;;;;;13.15;100.00;94921.91;4984084;28;20036;-84
2022/12/29 09:18:50;;;;;;;466.00;29.73;;;;;;;13.53;100.00;94931.25;4984152;28;20034;-84
2022/12/29 09:21:16;;;;;;;346.92;27.45;;;;;;;13.08;100.00;94924.06;4984774;28;20037;-87
2022/12/29 09:23:41;;;;;;;155.82;20.02;;;;;;;13.11;100.00;94936.66;5000963;28;20025;-87
2022/12/29 09:26:07;;;;;;;518.80;35.25;;;;;;;13.23;100.00;94944.22;4983996;28;20119;-87
2022/12/29 09:28:33;;;;;;;392.17;32.08;;;;;;;13.68;100.00;94941.69;4984230;28;20039;-87
2022/12/29 09:30:59;;;;;;;473.73;33.67;;;;;;;13.71;100.00;94940.38;5000155;28;20060;-88
2022/12/29 09:33:24;;;;;;;231.50;22.60;;;;;;;13.59;100.00;94938.03;4984440;28;20092;-87
2022/12/29 09:36:00;;;;;;;53.28;13.40;;;;;;;13.81;100.00;94921.84;5000535;28;20029;-86
2022/12/29 09:38:26;;;;;;;543.28;34.42;;;;;;;13.14;100.00;94928.22;4999922;28;20031;-86
2022/12/29 09:40:55;;;;;;;303.75;26.30;;;;;;;13.43;100.00;94940.75;5003527;28;20060;-87
2022/12/29 09:43:29;;;;;;;50.08;15.50;;;;;;;14.03;100.00;94938.31;4995062;28;20099;-88
2022/12/29 09:46:11;;;;;;;32.25;16.00;;;;;;;13.60;100.00;94928.31;5019783;28;20128;-87
2022/12/29 09:48:44;;;;;;;33.08;17.77;;;;;;;13.71;100.00;94922.69;5018932;28;20095;-87
2022/12/29 09:51:22;;;;;;;29.00;15.85;;;;;;;14.34;100.00;94920.41;4984288;28;20030;-87
2022/12/29 09:54:09;;;;;;;36.00;17.17;;;;;;;14.76;100.00;94923.47;5000330;28;20485;-88
2022/12/29 09:56:39;;;;;;;30.02;14.52;;;;;;;13.90;100.00;94923.91;5029133;28;20523;-87
2022/12/29 09:59:14;;;;;;;24.65;12.52;;;;;;;14.37;100.00;94924.34;4984162;28;20034;-87
2022/12/29 10:01:57;;;;;;;25.80;13.57;;;;;;;14.68;100.00;94918.78;4999453;28;20026;-88
2022/12/29 10:04:23;;;;;;;26.10;13.00;;;;;;;14.69;100.00;94920.34;4999688;28;20374;-87
2022/12/29 10:06:53;;;;;;;24.38;12.90;;;;;;;14.63;100.00;94916.19;4983661;28;20080;-87
2022/12/29 10:10:02;;;;;;;458.33;30.00;;;;;;;14.32;100.00;94922.53;4999694;28;20029;-87
2022/12/29 10:12:46;;;;;;;28.15;14.90;;;;;;;13.55;100.00;94927.25;4960464;28;20045;-84
2022/12/29 10:15:26;;;;;;;25.98;14.10;;;;;;;14.52;100.00;94911.03;5016513;28;20037;-84
2022/12/29 10:18:18;;;;;;;25.05;12.25;;;;;;;14.74;100.00;94914.28;5016507;28;20030;-86
2022/12/29 10:21:02;;;;;;;34.28;15.00;;;;;;;14.49;100.00;94910.78;4999490;28;20032;-85
2022/12/29 10:23:40;;;;;;;31.20;15.48;;;;;;;14.00;100.00;94911.44;5016648;28;20026;-84
2022/12/29 10:26:13;;;;;;;29.40;17.02;;;;;;;13.75;100.00;94895.81;4999202;28;20022;-84
2022/12/29 10:28:52;;;;;;;31.80;16.67;;;;;;;14.09;100.00;94901.09;4999206;28;20037;-84
2022/12/29 10:31:29;;;;;;;40.53;18.15;;;;;;;14.40;100.00;94913.25;4982979;28;20034;-84
2022/12/29 10:33:58;;;;;;;65.88;18.90;;;;;;;14.65;100.00;94927.25;4993658;28;20029;-83
2022/12/29 10:36:40;;;;;;;49.03;17.50;;;;;;;14.64;100.00;94918.53;5009648;28;20135;-83
2022/12/29 10:39:33;;;;;;;175.32;21.88;;;;;;;14.35;100.00;94906.16;5003130;28;20021;-83
2022/12/29 10:42:08;;;;;;;41.40;18.30;;;;;;;14.10;100.00;94891.38;5003321;28;20018;-84
2022/12/29 10:44:34;;;;;;;34.83;17.88;;;;;;;14.61;100.00;94897.22;5019416;28;20022;-84
2022/12/29 10:47:04;;;;;;;41.40;17.95;;;;;;;14.39;100.00;94877.41;5003599;28;20033;-83
2022/12/29 10:49:31;;;;;;;34.95;16.33;;;;;;;14.02;100.00;94876.13;5003547;28;20018;-83
2022/12/29 10:51:58;;;;;;;27.95;14.75;;;;;;;14.52;100.00;94871.47;5003164;28;20037;-84
2022/12/29 10:54:45;;;;;;;26.75;13.75;;;;;;;15.36;100.00;94880.03;5002787;28;20029;-83
2022/12/29 10:57:17;;;;;;;30.90;14.85;;;;;;;15.57;100.00;94874.47;5002819;28;20048;-84
2022/12/29 10:59:43;;;;;;;33.08;15.70;;;;;;;15.26;100.00;94880.16;5020332;28;20064;-83
2022/12/29 11:02:11;;;;;;;33.38;16.13;;;;;;;15.91;100.00;94877.97;5003082;28;20038;-83
2022/12/29 11:04:49;;;;;;;34.28;16.55;;;;;;;16.11;100.00;94868.91;5020082;28;20026;-83
2022/12/29 11:07:17;;;;;;;31.55;15.20;;;;;;;14.71;100.00;94873.38;5026602;28;20052;-83
2022/12/29 11:09:43;;;;;;;27.02;13.90;;;;;;;15.79;100.00;94871.22;5022224;28;20029;-83
2022/12/29 11:12:30;;;;;;;23.83;12.90;;;;;;;16.91;100.00;94865.38;5022228;28;20076;-83
2022/12/29 11:15:01;;;;;;;22.52;12.13;;;;;;;17.08;93.56;94848.91;5005648;28;20029;-83
2022/12/29 11:17:26;;;;;;;25.08;12.55;;;;;;;16.75;97.03;94841.84;5039541;28;20077;-83
2022/12/29 11:19:52;;;;;;;24.52;13.15;;;;;;;16.76;93.82;94854.00;5022273;28;20033;-83
2022/12/29 11:22:21;;;;;;;27.33;14.15;;;;;;;16.76;93.51;94855.88;5021926;28;20028;-85
2022/12/29 11:24:48;;;;;;;23.08;12.98;;;;;;;16.91;90.79;94842.34;5022018;28;20018;-86
2022/12/29 11:27:15;;;;;;;25.55;13.15;;;;;;;16.09;97.48;94844.63;5022096;28;20021;-85
2022/12/29 11:29:42;;;;;;;24.08;12.52;;;;;;;16.69;91.15;94840.41;5006005;28;20037;-86
2022/12/29 11:32:33;;;;;;;24.63;12.75;;;;;;;17.49;87.91;94856.00;5006071;28;20025;-84
2022/12/29 11:34:59;;;;;;;27.40;12.80;;;;;;;16.90;93.28;94853.22;5034521;28;20339;-84
2022/12/29 11:37:29;;;;;;;25.60;14.07;;;;;;;16.66;99.79;94843.63;5021942;28;20026;-84
2022/12/29 11:40:07;;;;;;;24.58;11.38;;;;;;;17.13;91.20;94840.84;5021788;28;20028;-85
2022/12/29 11:42:40;;;;;;;21.38;10.50;;;;;;;17.03;93.66;94825.22;5039313;28;20037;-86
2022/12/29 11:45:14;;;;;;;16.23;8.05;;;;;;;17.95;84.92;94817.06;5005648;28;20415;-86
2022/12/29 11:47:42;;;;;;;18.50;7.75;;;;;;;18.20;82.82;94816.72;5005164;28;20030;-86
2022/12/29 11:50:26;;;;;;;11.10;5.55;;;;;;;19.02;73.98;94807.69;5004155;28;20029;-85
2022/12/29 11:53:01;;;;;;;11.25;4.75;;;;;;;18.28;66.37;94804.59;5021215;28;20033;-85
2022/12/29 11:55:28;;;;;;;8.75;4.60;;;;;;;19.18;66.43;94803.47;5021744;28;20021;-86
2022/12/29 11:57:55;;;;;;;11.88;5.05;;;;;;;18.90;64.10;94809.03;5021290;28;20116;-85
2022/12/29 12:00:26;;;;;;;15.55;7.82;;;;;;;18.79;65.99;94800.56;5005123;28;20131;-85
2022/12/29 12:03:00;;;;;;;18.00;8.80;;;;;;;18.12;72.59;94809.50;5021717;28;20084;-85